Piper Inness — WDC3984 — position and weather

sailwx.info

Track history (hours):
 
Tides and Currents Weather Stations Pressure Air Temp Water Temp Dewpoint Dewpoint Depression Visibility Wind Speed Wind Dir Waves Ship Positions

Piper Inness

Owner: Foss Maritime Co, Seattle, WA. More information available from US FCC via Universal Licensing System and Coast Guard Vessel Documentation Center.

Last reported at 2014-Dec-19 23:32 UTC. Time now 2014-Dec-20 00:10 UTC.
Position N 33°46' W 118°13'.

; draft 2 m.

Type: Other ship. MMSI: 367017440.

Date/timePositionNaut miles runAvg speedWind from/ knotsBaromVisibWave heightAir tempDewpointWater temp
2014-Dec-19 23:32N 33°46' W 118°13'0 0.0
2014-Dec-19 22:33N 33°46' W 118°13'0 0.0
2014-Dec-19 21:30N 33°46' W 118°13'0 0.0
2014-Dec-19 20:29N 33°46' W 118°13'0 0.0
2014-Dec-19 19:28N 33°46' W 118°13'0 0.0
2014-Dec-19 18:33N 33°46' W 118°13'0 0.0
2014-Dec-19 17:33N 33°46' W 118°13'0 0.0
2014-Dec-19 16:27N 33°46' W 118°13'0 0.0
2014-Dec-19 15:33N 33°46' W 118°13'0 0.0
2014-Dec-19 14:07N 33°46' W 118°13'0 0.0
2014-Dec-19 13:24N 33°46' W 118°13'0 0.0
2014-Dec-19 12:20N 33°46' W 118°13'0 0.0
2014-Dec-19 11:17N 33°46' W 118°13'0 0.0
2014-Dec-19 10:24N 33°46' W 118°13'0 0.0
2014-Dec-19 06:12N 33°46' W 118°13'0 0.0
2014-Dec-19 05:11N 33°46' W 118°13'0 0.0
2014-Dec-19 02:18N 33°46' W 118°13'0 0.0
2014-Dec-19 01:06N 33°46' W 118°13'0 0.0
2014-Dec-19 00:26N 33°46' W 118°13'0 0.0
2014-Dec-18 23:33N 33°46' W 118°13'0 0.0
2014-Dec-18 22:33N 33°46' W 118°13'0 0.0
2014-Dec-18 21:33N 33°46' W 118°13'1 1.0
2014-Dec-18 20:33N 33°45' W 118°13'3215.9
2014-Dec-18 18:33N 33°17' W 117°56'1312.7
2014-Dec-18 17:33N 33°05' W 117°50'1 1.4
2014-Dec-18 16:33N 33°05' W 117°51'1 0.9
2014-Dec-18 15:33N 33°04' W 117°50'1 1.0
2014-Dec-18 14:33N 33°03' W 117°50'1 1.0
2014-Dec-18 13:33N 33°03' W 117°48'1 0.8
2014-Dec-18 12:33N 33°02' W 117°49'0 0.4
2014-Dec-18 11:33N 33°03' W 117°49'1 1.4
2014-Dec-18 10:33N 33°02' W 117°48'1 0.9
2014-Dec-18 09:33N 33°01' W 117°48'1 0.9
2014-Dec-18 08:33N 33°01' W 117°47'1 0.8
2014-Dec-18 07:33N 33°01' W 117°47'1 0.6
2014-Dec-18 06:33N 33°01' W 117°46'2 2.4
2014-Dec-18 05:33N 32°59' W 117°45'2 1.8
2014-Dec-18 04:33N 32°57' W 117°46'1 0.8
2014-Dec-18 03:33N 32°57' W 117°46'2 1.9
2014-Dec-18 02:33N 32°56' W 117°44'2 1.6
2014-Dec-18 01:33N 32°56' W 117°42'3 3.0
2014-Dec-18 00:34N 32°56' W 117°39'3 3.4
2014-Dec-17 23:33N 32°58' W 117°42'5 5.1
2014-Dec-17 22:33N 33°02' W 117°46'4 4.5
2014-Dec-17 21:33N 33°05' W 117°51'3 3.3
2014-Dec-17 20:33N 33°07' W 117°54'4 3.3
2014-Dec-17 19:22N 33°10' W 117°57'0 0.2
2014-Dec-17 18:27N 33°10' W 117°57'6 6.4
2014-Dec-17 17:33N 33°15' W 117°59'3214.8
2014-Dec-17 15:24N 33°45' W 118°13'1 1.2
2014-Dec-17 14:33N 33°46' W 118°13'1 0.6
2014-Dec-17 13:34N 33°46' W 118°13'0 0.0
2014-Dec-17 12:29N 33°46' W 118°13'0 0.0
2014-Dec-17 11:25N 33°46' W 118°13'0 0.0
2014-Dec-17 10:20N 33°46' W 118°13'0 0.0
2014-Dec-17 09:21N 33°46' W 118°13'0 0.0
2014-Dec-17 07:25N 33°46' W 118°13'0 0.0
2014-Dec-17 06:31N 33°46' W 118°13'0 0.0
2014-Dec-17 05:30N 33°46' W 118°13'0 0.0
2014-Dec-17 04:26N 33°46' W 118°13'0 0.0
2014-Dec-17 03:33N 33°46' W 118°13'0 0.0
2014-Dec-17 02:33N 33°46' W 118°13'0 0.0
2014-Dec-17 01:33N 33°46' W 118°13'0 0.0
2014-Dec-17 00:32N 33°46' W 118°13'0 0.0
2014-Dec-16 23:33N 33°46' W 118°13'0 0.0
2014-Dec-16 22:33N 33°46' W 118°13'0 0.0
2014-Dec-16 21:33N 33°46' W 118°13'0 0.0
2014-Dec-16 20:32N 33°46' W 118°13'0 0.0
2014-Dec-16 19:33N 33°46' W 118°13'0 0.0
2014-Dec-16 18:29N 33°46' W 118°13'0 0.0
2014-Dec-16 17:12N 33°46' W 118°13'0 0.0
2014-Dec-16 16:29N 33°46' W 118°13'0 0.0
2014-Dec-16 15:33N 33°46' W 118°13'0 0.0
2014-Dec-16 14:33N 33°46' W 118°13'0 0.0
2014-Dec-16 13:33N 33°46' W 118°13'0 0.0
2014-Dec-16 12:33N 33°46' W 118°13'1 0.9
2014-Dec-16 11:33N 33°45' W 118°13'3115.2
2014-Dec-16 09:33N 33°17' W 117°59'8 8.5
2014-Dec-16 08:33N 33°09' W 117°55'6 5.8
2014-Dec-16 07:33N 33°05' W 117°50'0 0.3
2014-Dec-16 06:33N 33°05' W 117°51'0 0.1
2014-Dec-16 05:33N 33°05' W 117°51'1 0.5
2014-Dec-16 04:32N 33°05' W 117°50'1 1.3
2014-Dec-16 03:32N 33°04' W 117°49'1 1.1
2014-Dec-16 02:33N 33°04' W 117°48'1 0.9
2014-Dec-16 01:32N 33°03' W 117°48'1 1.1
2014-Dec-16 00:31N 33°02' W 117°48'1 1.4
2014-Dec-15 23:33N 33°01' W 117°46'0 0.4
2014-Dec-15 22:33N 33°01' W 117°46'0 0.2
2014-Dec-15 21:33N 33°01' W 117°46'0 0.1
2014-Dec-15 20:33N 33°00' W 117°46'0 0.2
2014-Dec-15 19:33N 33°00' W 117°46'1 1.2
2014-Dec-15 18:33N 32°59' W 117°45'0 0.2
2014-Dec-15 17:34N 32°59' W 117°45'0 0.1
2014-Dec-15 16:33N 32°59' W 117°45'2 1.8
2014-Dec-15 15:33N 32°58' W 117°43'1 1.4
2014-Dec-15 14:34N 32°57' W 117°43'1 0.6
2014-Dec-15 13:34N 32°57' W 117°43'0 0.4
2014-Dec-15 12:33N 32°57' W 117°44'2 1.7
2014-Dec-15 11:34N 32°57' W 117°46'4 3.6
2014-Dec-15 10:34N 32°60' W 117°49'4 3.9
2014-Dec-15 09:33N 33°03' W 117°52'3 3.5
2014-Dec-15 08:33N 33°05' W 117°55'6 6.3
2014-Dec-15 07:33N 33°09' W 118°01'2 2.5
2014-Dec-15 06:33N 33°11' W 118°01'3514.1
2014-Dec-15 04:05N 33°45' W 118°13'2 3.0
2014-Dec-15 03:32N 33°46' W 118°13'0 0.0
2014-Dec-15 02:33N 33°46' W 118°13'0 0.0
2014-Dec-15 01:33N 33°46' W 118°13'0 0.0
2014-Dec-15 00:27N 33°46' W 118°13'3 2.8
2014-Dec-14 23:31N 33°44' W 118°13'1 0.3
2014-Dec-14 20:30N 33°45' W 118°13'2 1.8
2014-Dec-14 19:33N 33°46' W 118°13'0 0.0
2014-Dec-14 18:31N 33°46' W 118°13'0 0.0
2014-Dec-14 17:33N 33°46' W 118°13'0 0.0
2014-Dec-14 16:33N 33°46' W 118°13'0 0.0
2014-Dec-14 15:34N 33°46' W 118°13'0 0.0
2014-Dec-14 14:33N 33°46' W 118°13'0 0.0
2014-Dec-14 13:32N 33°46' W 118°13'0 0.0
2014-Dec-14 12:31N 33°46' W 118°13'0 0.0
2014-Dec-14 11:33N 33°46' W 118°13'0 0.0
2014-Dec-14 10:31N 33°46' W 118°13'0 0.0
2014-Dec-14 09:33N 33°46' W 118°13'0 0.0
2014-Dec-14 08:26N 33°46' W 118°13'0 0.0
2014-Dec-14 07:23N 33°46' W 118°13'0 0.0
2014-Dec-14 06:06N 33°46' W 118°13'0 0.0
2014-Dec-14 05:25N 33°46' W 118°13'0 0.0
2014-Dec-14 04:29N 33°46' W 118°13'0 0.0
2014-Dec-14 03:25N 33°46' W 118°13'0 0.0
2014-Dec-14 02:31N 33°46' W 118°13'0 0.0
2014-Dec-14 01:32N 33°46' W 118°13'0 0.0
2014-Dec-14 00:22N 33°46' W 118°13'0 0.0
2014-Dec-13 23:24N 33°46' W 118°13'0 0.0
2014-Dec-13 22:26N 33°46' W 118°13'0 0.0
2014-Dec-13 21:33N 33°46' W 118°13'0 0.0
2014-Dec-13 20:33N 33°46' W 118°13'0 0.0
2014-Dec-13 19:33N 33°46' W 118°13'0 0.0
2014-Dec-13 18:24N 33°46' W 118°13'0 0.0
2014-Dec-13 17:33N 33°46' W 118°13'0 0.0
2014-Dec-13 16:33N 33°46' W 118°13'0 0.0
2014-Dec-13 15:29N 33°46' W 118°13'0 0.0
2014-Dec-13 14:05N 33°46' W 118°13'0 0.0
2014-Dec-13 13:07N 33°46' W 118°13'0 0.0
2014-Dec-13 12:30N 33°46' W 118°13'0 0.0
2014-Dec-13 11:24N 33°46' W 118°13'0 0.0
2014-Dec-13 10:19N 33°46' W 118°13'0 0.0
2014-Dec-13 09:33N 33°46' W 118°13'0 0.0
2014-Dec-13 08:33N 33°46' W 118°13'0 0.0
2014-Dec-13 07:31N 33°46' W 118°13'0 0.0
2014-Dec-13 06:33N 33°46' W 118°13'0 0.0
2014-Dec-13 05:34N 33°46' W 118°13'0 0.0
2014-Dec-13 04:33N 33°46' W 118°13'0 0.0
2014-Dec-13 03:33N 33°46' W 118°13'0 0.0
2014-Dec-13 02:33N 33°46' W 118°13'0 0.0
2014-Dec-13 01:34N 33°46' W 118°13'0 0.0
2014-Dec-13 00:31N 33°46' W 118°13'0 0.0
2014-Dec-12 23:33N 33°46' W 118°13'0 0.0
2014-Dec-12 22:34N 33°46' W 118°13'0 0.0
2014-Dec-12 21:34N 33°46' W 118°13'0 0.4
2014-Dec-12 20:34N 33°46' W 118°13'0 0.1
2014-Dec-12 17:33N 33°46' W 118°13'1 0.7
2014-Dec-12 16:33N 33°46' W 118°13'0 0.0
2014-Dec-12 15:33N 33°46' W 118°13'0 0.0
2014-Dec-12 14:30N 33°46' W 118°13'0 0.0
2014-Dec-12 13:32N 33°46' W 118°13'0 0.0
2014-Dec-12 12:33N 33°46' W 118°13'0 0.0
2014-Dec-12 11:19N 33°46' W 118°13'0 0.0
2014-Dec-12 10:33N 33°46' W 118°13'0 0.0
2014-Dec-12 09:33N 33°46' W 118°13'0 0.0
2014-Dec-12 08:33N 33°46' W 118°13'0 0.0
2014-Dec-12 07:31N 33°46' W 118°13'0 0.0
2014-Dec-12 06:31N 33°46' W 118°13'0 0.0
2014-Dec-12 05:33N 33°46' W 118°13'0 0.0
2014-Dec-12 04:33N 33°46' W 118°13'0 0.0
2014-Dec-12 03:33N 33°46' W 118°13'0 0.0
2014-Dec-12 02:33N 33°46' W 118°13'0 0.0
2014-Dec-12 01:33N 33°46' W 118°13'0 0.0
2014-Dec-12 00:33N 33°46' W 118°13'2 2.1
2014-Dec-11 23:32N 33°44' W 118°13'0 0.1
2014-Dec-11 21:23N 33°44' W 118°13'1 1.6
2014-Dec-11 20:33N 33°46' W 118°13'1 0.5
2014-Dec-11 19:33N 33°46' W 118°13'3112.8
2014-Dec-11 17:10N 33°18' W 117°59'1117.9
2014-Dec-11 16:33N 33°08' W 117°54'3 3.5
2014-Dec-11 15:34N 33°05' W 117°52'0 0.3
2014-Dec-11 14:33N 33°05' W 117°52'1 0.6
2014-Dec-11 13:33N 33°04' W 117°52'1 1.0
2014-Dec-11 12:33N 33°05' W 117°51'1 0.7
2014-Dec-11 11:33N 33°05' W 117°51'1 0.6
2014-Dec-11 10:33N 33°04' W 117°51'1 0.7
2014-Dec-11 09:33N 33°03' W 117°51'1 0.6
2014-Dec-11 08:33N 33°03' W 117°50'1 1.0
2014-Dec-11 07:33N 33°03' W 117°51'1 0.7
2014-Dec-11 06:33N 33°02' W 117°51'1 0.6
2014-Dec-11 05:33N 33°01' W 117°50'1 0.6
2014-Dec-11 04:33N 33°01' W 117°50'0 0.5
2014-Dec-11 03:33N 33°01' W 117°50'1 1.4
2014-Dec-11 02:33N 33°01' W 117°48'1 0.5
2014-Dec-11 01:27N 33°00' W 117°48'1 0.6
2014-Dec-11 00:33N 32°60' W 117°48'4 3.9
2014-Dec-10 23:33N 32°57' W 117°44'4 4.4
2014-Dec-10 22:34N 32°56' W 117°40'2 2.4
2014-Dec-10 21:33N 32°58' W 117°40'0 0.4
2014-Dec-10 20:33N 32°57' W 117°41'1 0.7
2014-Dec-10 19:33N 32°57' W 117°41'1 1.3
2014-Dec-10 18:34N 32°56' W 117°41'1 0.5
2014-Dec-10 17:33N 32°56' W 117°41'1 0.8
2014-Dec-10 16:33N 32°55' W 117°42'1 1.4
2014-Dec-10 15:33N 32°55' W 117°43'2 1.6
2014-Dec-10 14:33N 32°57' W 117°44'2 1.6
2014-Dec-10 13:33N 32°58' W 117°45'0 0.3
2014-Dec-10 12:33N 32°58' W 117°45'0 0.4
2014-Dec-10 11:33N 32°57' W 117°45'0 0.2
2014-Dec-10 10:33N 32°57' W 117°45'0 0.3
2014-Dec-10 09:33N 32°57' W 117°46'0 0.4
2014-Dec-10 08:33N 32°57' W 117°46'0 0.5
2014-Dec-10 07:33N 32°57' W 117°47'0 0.5
2014-Dec-10 06:33N 32°57' W 117°47'0 0.5
2014-Dec-10 05:33N 32°57' W 117°48'2 1.8
2014-Dec-10 04:33N 32°58' W 117°49'3 3.3
2014-Dec-10 03:34N 33°00' W 117°52'5 4.9
2014-Dec-10 02:33N 33°05' W 117°55'7 6.9
2014-Dec-10 01:33N 33°11' W 117°51'7 6.9
2014-Dec-10 00:33N 33°16' W 117°47'1 1.0
2014-Dec-09 23:33N 33°17' W 117°46'  
Track history (hours):
 
Tides and Currents Weather Stations Pressure Air Temp Water Temp Dewpoint Dewpoint Depression Visibility Wind Speed Wind Dir Waves Ship Positions

Piper Inness

Owner: Foss Maritime Co, Seattle, WA. More information available from US FCC via Universal Licensing System and Coast Guard Vessel Documentation Center.

Last reported at 2014-Dec-19 23:32 UTC. Time now 2014-Dec-20 00:10 UTC.
Position N 33°46' W 118°13'.

; draft 2 m.

Type: Other ship. MMSI: 367017440.

Date/timePositionNaut miles runAvg speedWind from/ knotsBaromVisibWave heightAir tempDewpointWater temp
2014-Dec-19 23:32N 33°46' W 118°13'0 0.0
2014-Dec-19 22:33N 33°46' W 118°13'0 0.0
2014-Dec-19 21:30N 33°46' W 118°13'0 0.0
2014-Dec-19 20:29N 33°46' W 118°13'0 0.0
2014-Dec-19 19:28N 33°46' W 118°13'0 0.0
2014-Dec-19 18:33N 33°46' W 118°13'0 0.0
2014-Dec-19 17:33N 33°46' W 118°13'0 0.0
2014-Dec-19 16:27N 33°46' W 118°13'0 0.0
2014-Dec-19 15:33N 33°46' W 118°13'0 0.0
2014-Dec-19 14:07N 33°46' W 118°13'0 0.0
2014-Dec-19 13:24N 33°46' W 118°13'0 0.0
2014-Dec-19 12:20N 33°46' W 118°13'0 0.0
2014-Dec-19 11:17N 33°46' W 118°13'0 0.0
2014-Dec-19 10:24N 33°46' W 118°13'0 0.0
2014-Dec-19 06:12N 33°46' W 118°13'0 0.0
2014-Dec-19 05:11N 33°46' W 118°13'0 0.0
2014-Dec-19 02:18N 33°46' W 118°13'0 0.0
2014-Dec-19 01:06N 33°46' W 118°13'0 0.0
2014-Dec-19 00:26N 33°46' W 118°13'0 0.0
2014-Dec-18 23:33N 33°46' W 118°13'0 0.0
2014-Dec-18 22:33N 33°46' W 118°13'0 0.0
2014-Dec-18 21:33N 33°46' W 118°13'1 1.0
2014-Dec-18 20:33N 33°45' W 118°13'3215.9
2014-Dec-18 18:33N 33°17' W 117°56'1312.7
2014-Dec-18 17:33N 33°05' W 117°50'1 1.4
2014-Dec-18 16:33N 33°05' W 117°51'1 0.9
2014-Dec-18 15:33N 33°04' W 117°50'1 1.0
2014-Dec-18 14:33N 33°03' W 117°50'1 1.0
2014-Dec-18 13:33N 33°03' W 117°48'1 0.8
2014-Dec-18 12:33N 33°02' W 117°49'0 0.4
2014-Dec-18 11:33N 33°03' W 117°49'1 1.4
2014-Dec-18 10:33N 33°02' W 117°48'1 0.9
2014-Dec-18 09:33N 33°01' W 117°48'1 0.9
2014-Dec-18 08:33N 33°01' W 117°47'1 0.8
2014-Dec-18 07:33N 33°01' W 117°47'1 0.6
2014-Dec-18 06:33N 33°01' W 117°46'2 2.4
2014-Dec-18 05:33N 32°59' W 117°45'2 1.8
2014-Dec-18 04:33N 32°57' W 117°46'1 0.8
2014-Dec-18 03:33N 32°57' W 117°46'2 1.9
2014-Dec-18 02:33N 32°56' W 117°44'2 1.6
2014-Dec-18 01:33N 32°56' W 117°42'3 3.0
2014-Dec-18 00:34N 32°56' W 117°39'3 3.4
2014-Dec-17 23:33N 32°58' W 117°42'5 5.1
2014-Dec-17 22:33N 33°02' W 117°46'4 4.5
2014-Dec-17 21:33N 33°05' W 117°51'3 3.3
2014-Dec-17 20:33N 33°07' W 117°54'4 3.3
2014-Dec-17 19:22N 33°10' W 117°57'0 0.2
2014-Dec-17 18:27N 33°10' W 117°57'6 6.4
2014-Dec-17 17:33N 33°15' W 117°59'3214.8
2014-Dec-17 15:24N 33°45' W 118°13'1 1.2
2014-Dec-17 14:33N 33°46' W 118°13'1 0.6
2014-Dec-17 13:34N 33°46' W 118°13'0 0.0
2014-Dec-17 12:29N 33°46' W 118°13'0 0.0
2014-Dec-17 11:25N 33°46' W 118°13'0 0.0
2014-Dec-17 10:20N 33°46' W 118°13'0 0.0
2014-Dec-17 09:21N 33°46' W 118°13'0 0.0
2014-Dec-17 07:25N 33°46' W 118°13'0 0.0
2014-Dec-17 06:31N 33°46' W 118°13'0 0.0
2014-Dec-17 05:30N 33°46' W 118°13'0 0.0
2014-Dec-17 04:26N 33°46' W 118°13'0 0.0
2014-Dec-17 03:33N 33°46' W 118°13'0 0.0
2014-Dec-17 02:33N 33°46' W 118°13'0 0.0
2014-Dec-17 01:33N 33°46' W 118°13'0 0.0
2014-Dec-17 00:32N 33°46' W 118°13'0 0.0
2014-Dec-16 23:33N 33°46' W 118°13'0 0.0
2014-Dec-16 22:33N 33°46' W 118°13'0 0.0
2014-Dec-16 21:33N 33°46' W 118°13'0 0.0
2014-Dec-16 20:32N 33°46' W 118°13'0 0.0
2014-Dec-16 19:33N 33°46' W 118°13'0 0.0
2014-Dec-16 18:29N 33°46' W 118°13'0 0.0
2014-Dec-16 17:12N 33°46' W 118°13'0 0.0
2014-Dec-16 16:29N 33°46' W 118°13'0 0.0
2014-Dec-16 15:33N 33°46' W 118°13'0 0.0
2014-Dec-16 14:33N 33°46' W 118°13'0 0.0
2014-Dec-16 13:33N 33°46' W 118°13'0 0.0
2014-Dec-16 12:33N 33°46' W 118°13'1 0.9
2014-Dec-16 11:33N 33°45' W 118°13'3115.2
2014-Dec-16 09:33N 33°17' W 117°59'8 8.5
2014-Dec-16 08:33N 33°09' W 117°55'6 5.8
2014-Dec-16 07:33N 33°05' W 117°50'0 0.3
2014-Dec-16 06:33N 33°05' W 117°51'0 0.1
2014-Dec-16 05:33N 33°05' W 117°51'1 0.5
2014-Dec-16 04:32N 33°05' W 117°50'1 1.3
2014-Dec-16 03:32N 33°04' W 117°49'1 1.1
2014-Dec-16 02:33N 33°04' W 117°48'1 0.9
2014-Dec-16 01:32N 33°03' W 117°48'1 1.1
2014-Dec-16 00:31N 33°02' W 117°48'1 1.4
2014-Dec-15 23:33N 33°01' W 117°46'0 0.4
2014-Dec-15 22:33N 33°01' W 117°46'0 0.2
2014-Dec-15 21:33N 33°01' W 117°46'0 0.1
2014-Dec-15 20:33N 33°00' W 117°46'0 0.2
2014-Dec-15 19:33N 33°00' W 117°46'1 1.2
2014-Dec-15 18:33N 32°59' W 117°45'0 0.2
2014-Dec-15 17:34N 32°59' W 117°45'0 0.1
2014-Dec-15 16:33N 32°59' W 117°45'2 1.8
2014-Dec-15 15:33N 32°58' W 117°43'1 1.4
2014-Dec-15 14:34N 32°57' W 117°43'1 0.6
2014-Dec-15 13:34N 32°57' W 117°43'0 0.4
2014-Dec-15 12:33N 32°57' W 117°44'2 1.7
2014-Dec-15 11:34N 32°57' W 117°46'4 3.6
2014-Dec-15 10:34N 32°60' W 117°49'4 3.9
2014-Dec-15 09:33N 33°03' W 117°52'3 3.5
2014-Dec-15 08:33N 33°05' W 117°55'6 6.3
2014-Dec-15 07:33N 33°09' W 118°01'2 2.5
2014-Dec-15 06:33N 33°11' W 118°01'3514.1
2014-Dec-15 04:05N 33°45' W 118°13'2 3.0
2014-Dec-15 03:32N 33°46' W 118°13'0 0.0
2014-Dec-15 02:33N 33°46' W 118°13'0 0.0
2014-Dec-15 01:33N 33°46' W 118°13'0 0.0
2014-Dec-15 00:27N 33°46' W 118°13'3 2.8
2014-Dec-14 23:31N 33°44' W 118°13'1 0.3
2014-Dec-14 20:30N 33°45' W 118°13'2 1.8
2014-Dec-14 19:33N 33°46' W 118°13'0 0.0
2014-Dec-14 18:31N 33°46' W 118°13'0 0.0
2014-Dec-14 17:33N 33°46' W 118°13'0 0.0
2014-Dec-14 16:33N 33°46' W 118°13'0 0.0
2014-Dec-14 15:34N 33°46' W 118°13'0 0.0
2014-Dec-14 14:33N 33°46' W 118°13'0 0.0
2014-Dec-14 13:32N 33°46' W 118°13'0 0.0
2014-Dec-14 12:31N 33°46' W 118°13'0 0.0
2014-Dec-14 11:33N 33°46' W 118°13'0 0.0
2014-Dec-14 10:31N 33°46' W 118°13'0 0.0
2014-Dec-14 09:33N 33°46' W 118°13'0 0.0
2014-Dec-14 08:26N 33°46' W 118°13'0 0.0
2014-Dec-14 07:23N 33°46' W 118°13'0 0.0
2014-Dec-14 06:06N 33°46' W 118°13'0 0.0
2014-Dec-14 05:25N 33°46' W 118°13'0 0.0
2014-Dec-14 04:29N 33°46' W 118°13'0 0.0
2014-Dec-14 03:25N 33°46' W 118°13'0 0.0
2014-Dec-14 02:31N 33°46' W 118°13'0 0.0
2014-Dec-14 01:32N 33°46' W 118°13'0 0.0
2014-Dec-14 00:22N 33°46' W 118°13'0 0.0
2014-Dec-13 23:24N 33°46' W 118°13'0 0.0
2014-Dec-13 22:26N 33°46' W 118°13'0 0.0
2014-Dec-13 21:33N 33°46' W 118°13'0 0.0
2014-Dec-13 20:33N 33°46' W 118°13'0 0.0
2014-Dec-13 19:33N 33°46' W 118°13'0 0.0
2014-Dec-13 18:24N 33°46' W 118°13'0 0.0
2014-Dec-13 17:33N 33°46' W 118°13'0 0.0
2014-Dec-13 16:33N 33°46' W 118°13'0 0.0
2014-Dec-13 15:29N 33°46' W 118°13'0 0.0
2014-Dec-13 14:05N 33°46' W 118°13'0 0.0
2014-Dec-13 13:07N 33°46' W 118°13'0 0.0
2014-Dec-13 12:30N 33°46' W 118°13'0 0.0
2014-Dec-13 11:24N 33°46' W 118°13'0 0.0
2014-Dec-13 10:19N 33°46' W 118°13'0 0.0
2014-Dec-13 09:33N 33°46' W 118°13'0 0.0
2014-Dec-13 08:33N 33°46' W 118°13'0 0.0
2014-Dec-13 07:31N 33°46' W 118°13'0 0.0
2014-Dec-13 06:33N 33°46' W 118°13'0 0.0
2014-Dec-13 05:34N 33°46' W 118°13'0 0.0
2014-Dec-13 04:33N 33°46' W 118°13'0 0.0
2014-Dec-13 03:33N 33°46' W 118°13'0 0.0
2014-Dec-13 02:33N 33°46' W 118°13'0 0.0
2014-Dec-13 01:34N 33°46' W 118°13'0 0.0
2014-Dec-13 00:31N 33°46' W 118°13'0 0.0
2014-Dec-12 23:33N 33°46' W 118°13'0 0.0
2014-Dec-12 22:34N 33°46' W 118°13'0 0.0
2014-Dec-12 21:34N 33°46' W 118°13'0 0.4
2014-Dec-12 20:34N 33°46' W 118°13'0 0.1
2014-Dec-12 17:33N 33°46' W 118°13'1 0.7
2014-Dec-12 16:33N 33°46' W 118°13'0 0.0
2014-Dec-12 15:33N 33°46' W 118°13'0 0.0
2014-Dec-12 14:30N 33°46' W 118°13'0 0.0
2014-Dec-12 13:32N 33°46' W 118°13'0 0.0
2014-Dec-12 12:33N 33°46' W 118°13'0 0.0
2014-Dec-12 11:19N 33°46' W 118°13'0 0.0
2014-Dec-12 10:33N 33°46' W 118°13'0 0.0
2014-Dec-12 09:33N 33°46' W 118°13'0 0.0
2014-Dec-12 08:33N 33°46' W 118°13'0 0.0
2014-Dec-12 07:31N 33°46' W 118°13'0 0.0
2014-Dec-12 06:31N 33°46' W 118°13'0 0.0
2014-Dec-12 05:33N 33°46' W 118°13'0 0.0
2014-Dec-12 04:33N 33°46' W 118°13'0 0.0
2014-Dec-12 03:33N 33°46' W 118°13'0 0.0
2014-Dec-12 02:33N 33°46' W 118°13'0 0.0
2014-Dec-12 01:33N 33°46' W 118°13'0 0.0
2014-Dec-12 00:33N 33°46' W 118°13'2 2.1
2014-Dec-11 23:32N 33°44' W 118°13'0 0.1
2014-Dec-11 21:23N 33°44' W 118°13'1 1.6
2014-Dec-11 20:33N 33°46' W 118°13'1 0.5
2014-Dec-11 19:33N 33°46' W 118°13'3112.8
2014-Dec-11 17:10N 33°18' W 117°59'1117.9
2014-Dec-11 16:33N 33°08' W 117°54'3 3.5
2014-Dec-11 15:34N 33°05' W 117°52'0 0.3
2014-Dec-11 14:33N 33°05' W 117°52'1 0.6
2014-Dec-11 13:33N 33°04' W 117°52'1 1.0
2014-Dec-11 12:33N 33°05' W 117°51'1 0.7
2014-Dec-11 11:33N 33°05' W 117°51'1 0.6
2014-Dec-11 10:33N 33°04' W 117°51'1 0.7
2014-Dec-11 09:33N 33°03' W 117°51'1 0.6
2014-Dec-11 08:33N 33°03' W 117°50'1 1.0
2014-Dec-11 07:33N 33°03' W 117°51'1 0.7
2014-Dec-11 06:33N 33°02' W 117°51'1 0.6
2014-Dec-11 05:33N 33°01' W 117°50'1 0.6
2014-Dec-11 04:33N 33°01' W 117°50'0 0.5
2014-Dec-11 03:33N 33°01' W 117°50'1 1.4
2014-Dec-11 02:33N 33°01' W 117°48'1 0.5
2014-Dec-11 01:27N 33°00' W 117°48'1 0.6
2014-Dec-11 00:33N 32°60' W 117°48'4 3.9
2014-Dec-10 23:33N 32°57' W 117°44'4 4.4
2014-Dec-10 22:34N 32°56' W 117°40'2 2.4
2014-Dec-10 21:33N 32°58' W 117°40'0 0.4
2014-Dec-10 20:33N 32°57' W 117°41'1 0.7
2014-Dec-10 19:33N 32°57' W 117°41'1 1.3
2014-Dec-10 18:34N 32°56' W 117°41'1 0.5
2014-Dec-10 17:33N 32°56' W 117°41'1 0.8
2014-Dec-10 16:33N 32°55' W 117°42'1 1.4
2014-Dec-10 15:33N 32°55' W 117°43'2 1.6
2014-Dec-10 14:33N 32°57' W 117°44'2 1.6
2014-Dec-10 13:33N 32°58' W 117°45'0 0.3
2014-Dec-10 12:33N 32°58' W 117°45'0 0.4
2014-Dec-10 11:33N 32°57' W 117°45'0 0.2
2014-Dec-10 10:33N 32°57' W 117°45'0 0.3
2014-Dec-10 09:33N 32°57' W 117°46'0 0.4
2014-Dec-10 08:33N 32°57' W 117°46'0 0.5
2014-Dec-10 07:33N 32°57' W 117°47'0 0.5
2014-Dec-10 06:33N 32°57' W 117°47'0 0.5
2014-Dec-10 05:33N 32°57' W 117°48'2 1.8
2014-Dec-10 04:33N 32°58' W 117°49'3 3.3
2014-Dec-10 03:34N 33°00' W 117°52'5 4.9
2014-Dec-10 02:33N 33°05' W 117°55'7 6.9
2014-Dec-10 01:33N 33°11' W 117°51'7 6.9
2014-Dec-10 00:33N 33°16' W 117°47'1 1.0
2014-Dec-09 23:33N 33°17' W 117°46'  

Dump ship's entire track history